sensor_id;sensor_type;location;lat;lon;timestamp;pressure;altitude;pressure_sealevel;temperature;humidity
77939;BME280;67136;47.546;21.630;2024-03-02T00:02:22;99509.25;;;10.86;91.01
77939;BME280;67136;47.546;21.630;2024-03-02T00:05:25;99512.38;;;10.90;91.08
77939;BME280;67136;47.546;21.630;2024-03-02T00:08:27;99508.72;;;10.83;92.59
77939;BME280;67136;47.546;21.630;2024-03-02T00:11:34;99513.25;;;10.81;92.25
77939;BME280;67136;47.546;21.630;2024-03-02T00:14:39;99518.09;;;10.76;92.92
77939;BME280;67136;47.546;21.630;2024-03-02T00:17:42;99515.19;;;10.79;91.97
77939;BME280;67136;47.546;21.630;2024-03-02T00:20:45;99511.31;;;10.83;91.98
77939;BME280;67136;47.546;21.630;2024-03-02T00:23:48;99515.56;;;10.84;91.48
77939;BME280;67136;47.546;21.630;2024-03-02T00:26:54;99525.09;;;10.85;91.30
77939;BME280;67136;47.546;21.630;2024-03-02T00:29:57;99524.78;;;10.88;90.68
77939;BME280;67136;47.546;21.630;2024-03-02T00:32:59;99535.69;;;11.01;89.67
77939;BME280;67136;47.546;21.630;2024-03-02T00:36:03;99531.88;;;10.95;89.94
77939;BME280;67136;47.546;21.630;2024-03-02T00:39:06;99522.84;;;10.90;90.41
77939;BME280;67136;47.546;21.630;2024-03-02T00:42:11;99516.78;;;10.89;90.16
77939;BME280;67136;47.546;21.630;2024-03-02T00:45:14;99499.50;;;10.79;90.65
77939;BME280;67136;47.546;21.630;2024-03-02T00:48:19;99503.19;;;10.86;90.42
77939;BME280;67136;47.546;21.630;2024-03-02T00:51:23;99504.84;;;10.87;90.32
77939;BME280;67136;47.546;21.630;2024-03-02T00:54:26;99508.25;;;10.87;90.46
77939;BME280;67136;47.546;21.630;2024-03-02T00:57:33;99497.78;;;10.87;90.71
77939;BME280;67136;47.546;21.630;2024-03-02T01:00:37;99498.69;;;10.78;91.95
77939;BME280;67136;47.546;21.630;2024-03-02T01:03:39;99508.31;;;10.78;91.57
77939;BME280;67136;47.546;21.630;2024-03-02T01:06:44;99504.72;;;10.79;91.08
77939;BME280;67136;47.546;21.630;2024-03-02T01:09:46;99499.13;;;10.74;92.69
77939;BME280;67136;47.546;21.630;2024-03-02T01:12:49;99501.78;;;10.64;94.51
77939;BME280;67136;47.546;21.630;2024-03-02T01:15:52;99498.94;;;10.58;94.65
77939;BME280;67136;47.546;21.630;2024-03-02T01:18:56;99496.72;;;10.63;93.52
77939;BME280;67136;47.546;21.630;2024-03-02T01:21:58;99495.88;;;10.62;93.42
77939;BME280;67136;47.546;21.630;2024-03-02T01:25:02;99492.94;;;10.48;96.31
77939;BME280;67136;47.546;21.630;2024-03-02T01:28:05;99493.34;;;10.53;94.76
77939;BME280;67136;47.546;21.630;2024-03-02T01:31:08;99493.09;;;10.46;95.79
77939;BME280;67136;47.546;21.630;2024-03-02T01:34:10;99492.66;;;10.51;95.51
77939;BME280;67136;47.546;21.630;2024-03-02T01:37:14;99490.72;;;10.53;94.53
77939;BME280;67136;47.546;21.630;2024-03-02T01:40:17;99492.50;;;10.52;94.68
77939;BME280;67136;47.546;21.630;2024-03-02T01:43:20;99493.78;;;10.48;95.14
77939;BME280;67136;47.546;21.630;2024-03-02T01:46:22;99495.25;;;10.51;94.98
77939;BME280;67136;47.546;21.630;2024-03-02T01:49:25;99499.38;;;10.53;94.17
77939;BME280;67136;47.546;21.630;2024-03-02T01:52:28;99498.19;;;10.65;92.53
77939;BME280;67136;47.546;21.630;2024-03-02T01:55:32;99506.88;;;10.66;92.70
77939;BME280;67136;47.546;21.630;2024-03-02T01:58:37;99495.72;;;10.64;93.01
77939;BME280;67136;47.546;21.630;2024-03-02T02:01:40;99495.97;;;10.70;92.35
77939;BME280;67136;47.546;21.630;2024-03-02T02:04:43;99496.13;;;10.69;92.40
77939;BME280;67136;47.546;21.630;2024-03-02T02:07:46;99481.94;;;10.71;91.93
77939;BME280;67136;47.546;21.630;2024-03-02T02:10:48;99470.28;;;10.66;92.58
77939;BME280;67136;47.546;21.630;2024-03-02T02:13:51;99463.03;;;10.60;94.06
77939;BME280;67136;47.546;21.630;2024-03-02T02:16:54;99477.06;;;10.59;93.81
77939;BME280;67136;47.546;21.630;2024-03-02T02:19:56;99480.88;;;10.64;92.63
77939;BME280;67136;47.546;21.630;2024-03-02T02:23:03;99475.87;;;10.71;91.92
77939;BME280;67136;47.546;21.630;2024-03-02T02:26:07;99494.00;;;10.82;90.40
77939;BME280;67136;47.546;21.630;2024-03-02T02:29:10;99494.00;;;10.82;90.41
77939;BME280;67136;47.546;21.630;2024-03-02T02:32:13;99493.69;;;10.85;89.86
77939;BME280;67136;47.546;21.630;2024-03-02T02:35:16;99504.69;;;10.88;89.05
77939;BME280;67136;47.546;21.630;2024-03-02T02:38:18;99509.09;;;10.88;89.04
77939;BME280;67136;47.546;21.630;2024-03-02T02:41:22;99511.56;;;10.89;88.37
77939;BME280;67136;47.546;21.630;2024-03-02T02:44:24;99506.69;;;10.94;87.52
77939;BME280;67136;47.546;21.630;2024-03-02T02:47:27;99508.47;;;10.94;87.23
77939;BME280;67136;47.546;21.630;2024-03-02T02:50:31;99516.72;;;10.99;86.75
77939;BME280;67136;47.546;21.630;2024-03-02T02:53:34;99505.66;;;11.05;85.74
77939;BME280;67136;47.546;21.630;2024-03-02T02:56:37;99515.47;;;11.03;85.87
77939;BME280;67136;47.546;21.630;2024-03-02T02:59:40;99508.97;;;11.07;85.52
77939;BME280;67136;47.546;21.630;2024-03-02T03:02:46;99508.28;;;11.05;85.67
77939;BME280;67136;47.546;21.630;2024-03-02T03:05:52;99504.69;;;11.06;85.61
77939;BME280;67136;47.546;21.630;2024-03-02T03:08:55;99499.59;;;11.04;85.83
77939;BME280;67136;47.546;21.630;2024-03-02T03:11:58;99496.91;;;10.96;86.54
77939;BME280;67136;47.546;21.630;2024-03-02T03:15:00;99485.56;;;10.88;87.35
77939;BME280;67136;47.546;21.630;2024-03-02T03:18:04;99487.34;;;10.87;87.24
77939;BME280;67136;47.546;21.630;2024-03-02T03:21:07;99492.19;;;10.82;87.92
77939;BME280;67136;47.546;21.630;2024-03-02T03:24:09;99491.94;;;10.76;89.17
77939;BME280;67136;47.546;21.630;2024-03-02T03:27:12;99497.72;;;10.79;88.97
77939;BME280;67136;47.546;21.630;2024-03-02T03:30:18;99516.31;;;10.76;88.90
77939;BME280;67136;47.546;21.630;2024-03-02T03:33:21;99513.84;;;10.75;89.08
77939;BME280;67136;47.546;21.630;2024-03-02T03:36:23;99500.09;;;10.73;89.49
77939;BME280;67136;47.546;21.630;2024-03-02T03:39:31;99501.19;;;10.70;90.83
77939;BME280;67136;47.546;21.630;2024-03-02T03:42:34;99506.44;;;10.70;91.08
77939;BME280;67136;47.546;21.630;2024-03-02T03:45:36;99508.09;;;10.71;90.80
77939;BME280;67136;47.546;21.630;2024-03-02T03:48:39;99503.41;;;10.75;91.23
77939;BME280;67136;47.546;21.630;2024-03-02T03:51:44;99509.44;;;10.75;92.67
77939;BME280;67136;47.546;21.630;2024-03-02T03:54:47;99509.69;;;10.55;96.06
77939;BME280;67136;47.546;21.630;2024-03-02T03:57:52;99502.91;;;10.62;94.60
77939;BME280;67136;47.546;21.630;2024-03-02T04:00:57;99496.41;;;10.48;97.72
77939;BME280;67136;47.546;21.630;2024-03-02T04:04:00;99503.00;;;10.43;97.68
77939;BME280;67136;47.546;21.630;2024-03-02T04:07:05;99508.25;;;10.70;93.08
77939;BME280;67136;47.546;21.630;2024-03-02T04:10:09;99515.03;;;10.80;92.24
77939;BME280;67136;47.546;21.630;2024-03-02T04:13:12;99512.69;;;10.87;91.63
77939;BME280;67136;47.546;21.630;2024-03-02T04:16:15;99495.03;;;10.89;91.00
77939;BME280;67136;47.546;21.630;2024-03-02T04:19:17;99497.75;;;10.97;89.67
77939;BME280;67136;47.546;21.630;2024-03-02T04:22:20;99495.84;;;10.89;90.15
77939;BME280;67136;47.546;21.630;2024-03-02T04:25:27;99498.94;;;10.85;90.69
77939;BME280;67136;47.546;21.630;2024-03-02T04:28:29;99498.53;;;10.80;90.15
77939;BME280;67136;47.546;21.630;2024-03-02T04:31:32;99510.94;;;10.78;89.80
77939;BME280;67136;47.546;21.630;2024-03-02T04:34:35;99502.78;;;10.81;88.57
77939;BME280;67136;47.546;21.630;2024-03-02T04:37:37;99520.41;;;10.79;87.87
77939;BME280;67136;47.546;21.630;2024-03-02T04:40:40;99514.53;;;10.77;87.47
77939;BME280;67136;47.546;21.630;2024-03-02T04:43:43;99516.78;;;10.72;88.12
77939;BME280;67136;47.546;21.630;2024-03-02T04:46:46;99517.16;;;10.77;86.50
77939;BME280;67136;47.546;21.630;2024-03-02T04:49:48;99515.78;;;10.73;86.50
77939;BME280;67136;47.546;21.630;2024-03-02T04:52:54;99525.03;;;10.67;86.45
77939;BME280;67136;47.546;21.630;2024-03-02T04:55:56;99521.87;;;10.64;86.11
77939;BME280;67136;47.546;21.630;2024-03-02T04:59:19;99521.94;;;10.54;86.63
77939;BME280;67136;47.546;21.630;2024-03-02T05:02:22;99515.72;;;10.55;86.03
77939;BME280;67136;47.546;21.630;2024-03-02T05:05:25;99519.22;;;10.46;86.39
77939;BME280;67136;47.546;21.630;2024-03-02T05:08:28;99525.94;;;10.49;86.24
77939;BME280;67136;47.546;21.630;2024-03-02T05:11:31;99521.16;;;10.44;86.67
77939;BME280;67136;47.546;21.630;2024-03-02T05:14:40;99520.63;;;10.41;86.87
77939;BME280;67136;47.546;21.630;2024-03-02T05:17:45;99519.25;;;10.37;87.53
77939;BME280;67136;47.546;21.630;2024-03-02T05:20:48;99526.97;;;10.38;87.50
77939;BME280;67136;47.546;21.630;2024-03-02T05:23:51;99532.31;;;10.37;87.84
77939;BME280;67136;47.546;21.630;2024-03-02T05:26:56;99528.50;;;10.31;88.28
77939;BME280;67136;47.546;21.630;2024-03-02T05:29:59;99528.66;;;10.30;88.75
77939;BME280;67136;47.546;21.630;2024-03-02T05:33:02;99531.53;;;10.27;89.05
77939;BME280;67136;47.546;21.630;2024-03-02T05:36:05;99529.22;;;10.24;89.41
77939;BME280;67136;47.546;21.630;2024-03-02T05:39:07;99533.50;;;10.25;89.38
77939;BME280;67136;47.546;21.630;2024-03-02T05:42:11;99543.78;;;10.26;89.87
77939;BME280;67136;47.546;21.630;2024-03-02T05:45:19;99543.78;;;10.26;89.70
77939;BME280;67136;47.546;21.630;2024-03-02T05:48:22;99548.19;;;10.26;89.71
77939;BME280;67136;47.546;21.630;2024-03-02T05:51:24;99559.72;;;10.23;90.13
77939;BME280;67136;47.546;21.630;2024-03-02T05:54:27;99565.78;;;10.24;90.40
77939;BME280;67136;47.546;21.630;2024-03-02T05:57:29;99574.47;;;10.24;90.73
77939;BME280;67136;47.546;21.630;2024-03-02T06:00:52;99584.75;;;10.26;90.47
77939;BME280;67136;47.546;21.630;2024-03-02T06:03:56;99586.12;;;10.30;90.05
77939;BME280;67136;47.546;21.630;2024-03-02T06:06:58;99585.84;;;10.33;90.01
77939;BME280;67136;47.546;21.630;2024-03-02T06:10:01;99588.31;;;10.34;89.98
77939;BME280;67136;47.546;21.630;2024-03-02T06:13:03;99594.38;;;10.35;90.28
77939;BME280;67136;47.546;21.630;2024-03-02T06:16:06;99601.25;;;10.36;90.27
77939;BME280;67136;47.546;21.630;2024-03-02T06:19:10;99599.59;;;10.35;90.45
77939;BME280;67136;47.546;21.630;2024-03-02T06:22:13;99597.94;;;10.34;90.64
77939;BME280;67136;47.546;21.630;2024-03-02T06:25:15;99603.44;;;10.31;91.00
77939;BME280;67136;47.546;21.630;2024-03-02T06:28:20;99604.81;;;10.35;90.58
77939;BME280;67136;47.546;21.630;2024-03-02T06:31:22;99608.09;;;10.37;90.16
77939;BME280;67136;47.546;21.630;2024-03-02T06:34:25;99615.81;;;10.38;89.68
77939;BME280;67136;47.546;21.630;2024-03-02T06:37:28;99619.63;;;10.44;89.36
77939;BME280;67136;47.546;21.630;2024-03-02T06:40:31;99622.09;;;10.45;88.88
77939;BME280;67136;47.546;21.630;2024-03-02T06:43:33;99622.50;;;10.50;88.95
77939;BME280;67136;47.546;21.630;2024-03-02T06:46:36;99621.56;;;10.51;88.84
77939;BME280;67136;47.546;21.630;2024-03-02T06:49:38;99628.97;;;10.56;88.49
77939;BME280;67136;47.546;21.630;2024-03-02T06:52:41;99633.91;;;10.59;88.72
77939;BME280;67136;47.546;21.630;2024-03-02T06:55:47;99640.34;;;10.64;88.55
77939;BME280;67136;47.546;21.630;2024-03-02T06:58:49;99636.34;;;10.70;88.37
77939;BME280;67136;47.546;21.630;2024-03-02T07:01:52;99637.16;;;10.70;88.44
77939;BME280;67136;47.546;21.630;2024-03-02T07:04:55;99645.94;;;10.79;88.47
77939;BME280;67136;47.546;21.630;2024-03-02T07:07:57;99648.56;;;10.79;88.76
77939;BME280;67136;47.546;21.630;2024-03-02T07:11:00;99651.31;;;10.77;89.68
77939;BME280;67136;47.546;21.630;2024-03-02T07:14:03;99652.34;;;10.94;89.19
77939;BME280;67136;47.546;21.630;2024-03-02T07:17:06;99657.41;;;11.05;88.63
77939;BME280;67136;47.546;21.630;2024-03-02T07:20:08;99660.19;;;10.94;89.64
77939;BME280;67136;47.546;21.630;2024-03-02T07:23:12;99659.47;;;11.01;90.98
77939;BME280;67136;47.546;21.630;2024-03-02T07:26:15;99669.59;;;11.14;90.24
77939;BME280;67136;47.546;21.630;2024-03-02T07:29:23;99677.44;;;11.14;89.63
77939;BME280;67136;47.546;21.630;2024-03-02T07:32:26;99681.34;;;11.10;90.14
77939;BME280;67136;47.546;21.630;2024-03-02T07:35:29;99680.81;;;11.06;90.56
77939;BME280;67136;47.546;21.630;2024-03-02T07:38:34;99676.97;;;11.01;93.43
77939;BME280;67136;47.546;21.630;2024-03-02T07:41:37;99688.81;;;11.05;93.26
77939;BME280;67136;47.546;21.630;2024-03-02T07:44:40;99688.81;;;11.05;93.01
77939;BME280;67136;47.546;21.630;2024-03-02T07:47:43;99693.63;;;11.00;94.32
77939;BME280;67136;47.546;21.630;2024-03-02T07:50:47;99687.97;;;11.04;95.47
77939;BME280;67136;47.546;21.630;2024-03-02T07:53:49;99690.53;;;10.87;96.40
77939;BME280;67136;47.546;21.630;2024-03-02T07:56:52;99681.34;;;11.00;94.19
77939;BME280;67136;47.546;21.630;2024-03-02T07:59:55;99679.13;;;11.15;95.44
77939;BME280;67136;47.546;21.630;2024-03-02T08:02:57;99682.91;;;11.30;95.00
77939;BME280;67136;47.546;21.630;2024-03-02T08:06:01;99680.06;;;11.41;94.37
77939;BME280;67136;47.546;21.630;2024-03-02T08:09:03;99680.84;;;11.24;96.12
77939;BME280;67136;47.546;21.630;2024-03-02T08:12:11;99679.75;;;11.44;95.58
77939;BME280;67136;47.546;21.630;2024-03-02T08:15:14;99668.72;;;11.50;94.31
77939;BME280;67136;47.546;21.630;2024-03-02T08:18:16;99671.03;;;11.36;93.71
77939;BME280;67136;47.546;21.630;2024-03-02T08:21:22;99672.13;;;11.78;93.37
77939;BME280;67136;47.546;21.630;2024-03-02T08:24:25;99673.94;;;12.12;91.68
77939;BME280;67136;47.546;21.630;2024-03-02T08:27:27;99673.66;;;11.80;91.67
77939;BME280;67136;47.546;21.630;2024-03-02T08:30:30;99672.53;;;12.00;91.27
77939;BME280;67136;47.546;21.630;2024-03-02T08:33:33;99661.88;;;12.19;88.71
77939;BME280;67136;47.546;21.630;2024-03-02T08:36:39;99661.62;;;12.30;87.87
77939;BME280;67136;47.546;21.630;2024-03-02T08:39:42;99674.03;;;12.46;87.16
77939;BME280;67136;47.546;21.630;2024-03-02T08:42:47;99669.22;;;12.41;86.53
77939;BME280;67136;47.546;21.630;2024-03-02T08:45:49;99657.22;;;12.13;87.50
77939;BME280;67136;47.546;21.630;2024-03-02T08:48:53;99665.03;;;12.05;87.93
77939;BME280;67136;47.546;21.630;2024-03-02T08:51:56;99655.63;;;12.64;85.92
77939;BME280;67136;47.546;21.630;2024-03-02T08:54:59;99659.81;;;12.82;85.02
77939;BME280;67136;47.546;21.630;2024-03-02T08:58:04;99668.56;;;12.65;85.08
77939;BME280;67136;47.546;21.630;2024-03-02T09:01:07;99667.63;;;13.00;83.09
77939;BME280;67136;47.546;21.630;2024-03-02T09:04:10;99670.31;;;13.08;82.79
77939;BME280;67136;47.546;21.630;2024-03-02T09:07:13;99671.94;;;13.09;81.76
77939;BME280;67136;47.546;21.630;2024-03-02T09:10:16;99677.09;;;13.18;81.92
77939;BME280;67136;47.546;21.630;2024-03-02T09:13:20;99684.75;;;13.45;81.17
77939;BME280;67136;47.546;21.630;2024-03-02T09:16:22;99695.47;;;13.68;80.01
77939;BME280;67136;47.546;21.630;2024-03-02T09:19:25;99685.47;;;13.71;79.38
77939;BME280;67136;47.546;21.630;2024-03-02T09:22:28;99694.34;;;13.70;79.57
77939;BME280;67136;47.546;21.630;2024-03-02T09:25:31;99703.69;;;13.81;79.62
77939;BME280;67136;47.546;21.630;2024-03-02T09:28:33;99712.44;;;13.32;81.83
77939;BME280;67136;47.546;21.630;2024-03-02T09:31:43;99719.13;;;13.68;80.62
77939;BME280;67136;47.546;21.630;2024-03-02T09:34:45;99722.06;;;13.65;80.69
77939;BME280;67136;47.546;21.630;2024-03-02T09:37:50;99708.34;;;14.11;78.60
77939;BME280;67136;47.546;21.630;2024-03-02T09:40:53;99705.94;;;14.34;76.90
77939;BME280;67136;47.546;21.630;2024-03-02T09:43:55;99708.72;;;14.56;75.98
77939;BME280;67136;47.546;21.630;2024-03-02T09:47:00;99706.56;;;14.52;75.60
77939;BME280;67136;47.546;21.630;2024-03-02T09:50:02;99699.50;;;14.52;75.21
77939;BME280;67136;47.546;21.630;2024-03-02T09:53:07;99686.69;;;14.57;75.47
77939;BME280;67136;47.546;21.630;2024-03-02T09:56:10;99685.19;;;14.71;73.94
77939;BME280;67136;47.546;21.630;2024-03-02T09:59:12;99695.16;;;15.00;72.81
77939;BME280;67136;47.546;21.630;2024-03-02T10:02:18;99693.75;;;15.20;72.03
77939;BME280;67136;47.546;21.630;2024-03-02T10:05:25;99698.22;;;15.58;70.34
77939;BME280;67136;47.546;21.630;2024-03-02T10:08:42;99689.78;;;15.32;70.66
77939;BME280;67136;47.546;21.630;2024-03-02T10:11:46;99689.66;;;15.64;69.89
77939;BME280;67136;47.546;21.630;2024-03-02T10:14:49;99700.44;;;15.38;70.55
77939;BME280;67136;47.546;21.630;2024-03-02T10:17:54;99697.22;;;15.20;70.77
77939;BME280;67136;47.546;21.630;2024-03-02T10:21:13;99698.97;;;15.44;70.11
77939;BME280;67136;47.546;21.630;2024-03-02T10:24:20;99704.06;;;15.76;69.01
77939;BME280;67136;47.546;21.630;2024-03-02T10:27:26;99705.59;;;15.93;68.08
77939;BME280;67136;47.546;21.630;2024-03-02T10:30:30;99704.56;;;16.02;66.70
77939;BME280;67136;47.546;21.630;2024-03-02T10:33:32;99703.75;;;16.24;65.72
77939;BME280;67136;47.546;21.630;2024-03-02T10:36:36;99702.53;;;17.01;63.95
77939;BME280;67136;47.546;21.630;2024-03-02T10:39:39;99698.78;;;15.76;66.55
77939;BME280;67136;47.546;21.630;2024-03-02T10:42:44;99700.66;;;16.35;65.06
77939;BME280;67136;47.546;21.630;2024-03-02T10:45:49;99687.50;;;17.30;61.41
77939;BME280;67136;47.546;21.630;2024-03-02T10:48:56;99687.72;;;16.26;62.82
77939;BME280;67136;47.546;21.630;2024-03-02T10:52:01;99689.91;;;16.96;62.67
77939;BME280;67136;47.546;21.630;2024-03-02T10:55:07;99691.50;;;17.56;59.78
77939;BME280;67136;47.546;21.630;2024-03-02T10:58:12;99690.63;;;18.75;55.93
77939;BME280;67136;47.546;21.630;2024-03-02T11:01:15;99685.75;;;18.30;57.53
77939;BME280;67136;47.546;21.630;2024-03-02T11:04:18;99691.34;;;19.24;53.54
77939;BME280;67136;47.546;21.630;2024-03-02T11:07:22;99688.41;;;19.40;52.04
77939;BME280;67136;47.546;21.630;2024-03-02T11:10:27;99690.28;;;19.19;53.08
77939;BME280;67136;47.546;21.630;2024-03-02T11:13:33;99684.12;;;18.78;53.92
77939;BME280;67136;47.546;21.630;2024-03-02T11:16:40;99691.81;;;18.66;53.10
77939;BME280;67136;47.546;21.630;2024-03-02T11:19:44;99683.53;;;19.10;52.70
77939;BME280;67136;47.546;21.630;2024-03-02T11:22:48;99689.03;;;18.81;52.81
77939;BME280;67136;47.546;21.630;2024-03-02T11:25:50;99689.56;;;18.42;53.19
77939;BME280;67136;47.546;21.630;2024-03-02T11:28:53;99684.88;;;18.23;55.10
77939;BME280;67136;47.546;21.630;2024-03-02T11:31:59;99680.06;;;18.33;53.59
77939;BME280;67136;47.546;21.630;2024-03-02T11:35:03;99683.38;;;17.93;54.72
77939;BME280;67136;47.546;21.630;2024-03-02T11:38:06;99676.13;;;17.80;55.95
77939;BME280;67136;47.546;21.630;2024-03-02T11:41:09;99673.56;;;16.04;60.30
77939;BME280;67136;47.546;21.630;2024-03-02T11:44:12;99681.56;;;15.88;61.64
77939;BME280;67136;47.546;21.630;2024-03-02T11:47:16;99686.06;;;15.57;63.09
77939;BME280;67136;47.546;21.630;2024-03-02T11:50:31;99680.97;;;16.83;58.60
77939;BME280;67136;47.546;21.630;2024-03-02T11:53:36;99681.66;;;17.20;57.90
77939;BME280;67136;47.546;21.630;2024-03-02T11:56:42;99686.41;;;17.10;58.82
77939;BME280;67136;47.546;21.630;2024-03-02T11:59:45;99688.69;;;16.84;60.32
77939;BME280;67136;47.546;21.630;2024-03-02T12:03:03;99670.41;;;16.83;59.90
77939;BME280;67136;47.546;21.630;2024-03-02T12:06:09;99679.63;;;16.27;61.92
77939;BME280;67136;47.546;21.630;2024-03-02T12:09:12;99678.91;;;15.96;63.71
77939;BME280;67136;47.546;21.630;2024-03-02T12:12:17;99678.03;;;15.73;65.07
77939;BME280;67136;47.546;21.630;2024-03-02T12:15:33;99678.97;;;15.19;66.06
77939;BME280;67136;47.546;21.630;2024-03-02T12:18:36;99681.44;;;15.81;64.42
77939;BME280;67136;47.546;21.630;2024-03-02T12:21:39;99673.50;;;16.86;61.47
77939;BME280;67136;47.546;21.630;2024-03-02T12:24:42;99680.25;;;17.68;58.95
77939;BME280;67136;47.546;21.630;2024-03-02T12:27:49;99671.63;;;18.99;53.53
77939;BME280;67136;47.546;21.630;2024-03-02T12:30:52;99672.34;;;19.21;51.78
77939;BME280;67136;47.546;21.630;2024-03-02T12:33:55;99672.84;;;18.41;54.22
77939;BME280;67136;47.546;21.630;2024-03-02T12:36:58;99668.00;;;17.61;57.09
77939;BME280;67136;47.546;21.630;2024-03-02T12:40:01;99669.62;;;17.32;57.61
77939;BME280;67136;47.546;21.630;2024-03-02T12:43:05;99658.81;;;16.69;60.73
77939;BME280;67136;47.546;21.630;2024-03-02T12:46:08;99664.91;;;16.33;62.08
77939;BME280;67136;47.546;21.630;2024-03-02T12:49:12;99670.75;;;17.23;59.15
77939;BME280;67136;47.546;21.630;2024-03-02T12:52:15;99675.94;;;17.82;57.39
77939;BME280;67136;47.546;21.630;2024-03-02T12:55:22;99667.94;;;17.96;56.52
77939;BME280;67136;47.546;21.630;2024-03-02T12:58:28;99665.84;;;18.34;55.26
77939;BME280;67136;47.546;21.630;2024-03-02T13:01:33;99667.13;;;17.96;55.94
77939;BME280;67136;47.546;21.630;2024-03-02T13:04:37;99660.84;;;17.76;56.55
77939;BME280;67136;47.546;21.630;2024-03-02T13:07:42;99654.31;;;19.37;53.00
77939;BME280;67136;47.546;21.630;2024-03-02T13:10:49;99652.88;;;20.67;49.08
77939;BME280;67136;47.546;21.630;2024-03-02T13:13:51;99666.41;;;22.42;43.52
77939;BME280;67136;47.546;21.630;2024-03-02T13:16:54;99653.31;;;20.44;46.93
77939;BME280;67136;47.546;21.630;2024-03-02T13:19:58;99646.72;;;20.86;45.41
77939;BME280;67136;47.546;21.630;2024-03-02T13:23:01;99642.41;;;19.81;47.77
77939;BME280;67136;47.546;21.630;2024-03-02T13:26:04;99651.03;;;20.35;47.59
77939;BME280;67136;47.546;21.630;2024-03-02T13:29:09;99648.25;;;19.56;48.97
77939;BME280;67136;47.546;21.630;2024-03-02T13:32:12;99645.59;;;17.99;53.26
77939;BME280;67136;47.546;21.630;2024-03-02T13:35:15;99645.88;;;17.89;53.24
77939;BME280;67136;47.546;21.630;2024-03-02T13:38:19;99645.59;;;17.27;55.14
77939;BME280;67136;47.546;21.630;2024-03-02T13:41:22;99640.34;;;16.98;56.24
77939;BME280;67136;47.546;21.630;2024-03-02T13:44:25;99644.91;;;16.01;59.56
77939;BME280;67136;47.546;21.630;2024-03-02T13:47:27;99639.06;;;15.91;60.06
77939;BME280;67136;47.546;21.630;2024-03-02T13:50:32;99634.72;;;15.45;62.37
77939;BME280;67136;47.546;21.630;2024-03-02T13:53:35;99641.75;;;15.22;63.48
77939;BME280;67136;47.546;21.630;2024-03-02T13:56:38;99635.00;;;14.72;66.58
77939;BME280;67136;47.546;21.630;2024-03-02T13:59:44;99637.94;;;14.77;66.56
77939;BME280;67136;47.546;21.630;2024-03-02T14:02:47;99640.97;;;14.66;67.26
77939;BME280;67136;47.546;21.630;2024-03-02T14:05:52;99639.66;;;14.22;68.81
77939;BME280;67136;47.546;21.630;2024-03-02T14:08:55;99642.66;;;14.27;69.09
77939;BME280;67136;47.546;21.630;2024-03-02T14:11:58;99640.66;;;14.21;69.77
77939;BME280;67136;47.546;21.630;2024-03-02T14:15:03;99651.66;;;14.09;70.36
77939;BME280;67136;47.546;21.630;2024-03-02T14:18:06;99645.56;;;14.08;70.93
77939;BME280;67136;47.546;21.630;2024-03-02T14:21:09;99644.28;;;14.04;71.92
77939;BME280;67136;47.546;21.630;2024-03-02T14:24:14;99648.03;;;14.02;72.43
77939;BME280;67136;47.546;21.630;2024-03-02T14:27:17;99646.91;;;14.20;70.06
77939;BME280;67136;47.546;21.630;2024-03-02T14:30:39;99640.34;;;14.16;70.24
77939;BME280;67136;47.546;21.630;2024-03-02T14:33:42;99647.91;;;14.35;69.95
77939;BME280;67136;47.546;21.630;2024-03-02T14:36:46;99651.19;;;14.37;68.96
77939;BME280;67136;47.546;21.630;2024-03-02T14:39:49;99658.59;;;14.34;68.82
77939;BME280;67136;47.546;21.630;2024-03-02T14:42:54;99658.41;;;14.19;69.21
77939;BME280;67136;47.546;21.630;2024-03-02T14:45:58;99651.34;;;14.04;69.70
77939;BME280;67136;47.546;21.630;2024-03-02T14:49:01;99656.09;;;13.92;69.86
77939;BME280;67136;47.546;21.630;2024-03-02T14:52:04;99657.72;;;13.85;70.51
77939;BME280;67136;47.546;21.630;2024-03-02T14:55:07;99665.94;;;13.74;71.68
77939;BME280;67136;47.546;21.630;2024-03-02T14:58:10;99650.34;;;13.73;73.42
77939;BME280;67136;47.546;21.630;2024-03-02T15:01:13;99655.59;;;13.73;74.58
77939;BME280;67136;47.546;21.630;2024-03-02T15:04:16;99660.63;;;13.58;78.42
77939;BME280;67136;47.546;21.630;2024-03-02T15:07:23;99656.38;;;13.57;83.08
77939;BME280;67136;47.546;21.630;2024-03-02T15:10:26;99663.09;;;13.51;81.91
77939;BME280;67136;47.546;21.630;2024-03-02T15:13:30;99657.31;;;13.48;81.50
77939;BME280;67136;47.546;21.630;2024-03-02T15:16:32;99655.00;;;13.37;82.29
77939;BME280;67136;47.546;21.630;2024-03-02T15:19:35;99660.25;;;13.37;81.22
77939;BME280;67136;47.546;21.630;2024-03-02T15:22:37;99662.38;;;13.33;81.59
77939;BME280;67136;47.546;21.630;2024-03-02T15:25:40;99663.00;;;13.27;81.85
77939;BME280;67136;47.546;21.630;2024-03-02T15:28:43;99659.84;;;13.16;81.80
77939;BME280;67136;47.546;21.630;2024-03-02T15:31:46;99654.25;;;13.11;82.40
77939;BME280;67136;47.546;21.630;2024-03-02T15:34:51;99657.19;;;13.08;82.30
77939;BME280;67136;47.546;21.630;2024-03-02T15:37:54;99651.50;;;12.87;82.53
77939;BME280;67136;47.546;21.630;2024-03-02T15:40:57;99648.72;;;12.88;82.35
77939;BME280;67136;47.546;21.630;2024-03-02T15:44:04;99656.06;;;12.85;82.91
77939;BME280;67136;47.546;21.630;2024-03-02T15:47:08;99650.28;;;12.73;83.18
77939;BME280;67136;47.546;21.630;2024-03-02T15:50:11;99656.31;;;12.74;83.43
77939;BME280;67136;47.546;21.630;2024-03-02T15:53:15;99657.97;;;12.75;83.35
77939;BME280;67136;47.546;21.630;2024-03-02T15:56:17;99661.22;;;12.69;83.73
77939;BME280;67136;47.546;21.630;2024-03-02T15:59:20;99666.72;;;12.58;84.72
77939;BME280;67136;47.546;21.630;2024-03-02T16:02:23;99664.09;;;12.58;84.27